Terminal Aerodrome Forecast
Issued by NWS

Home | Current Version | Previous Version | Text Only | Print | Product List | Glossary Off
Versions: 1 2 3 4 5 6 7 8 9 10 11 12 13

000
FTUS45 KGGW 202320
TAFGDV
TAF
KGDV 202320Z 2100/2124 27007KT P6SM SCT150
     FM210100 28011KT P6SM SCT150
     FM210300 29022G32KT P6SM SCT140
     FM210900 26016G24KT P6SM FEW150=

USA.gov is the U.S. government's official web portal to all federal, state and local government web resources and services.